Time;durP1;ratioP1;P1;durP2;ratioP2;P2;SDS_P1;SDS_P2;PMS_P1;PMS_P2;Temp;Humidity;BMP_temperature;BMP_pressure;BME280_temperature;BME280_humidity;BME280_pressure;Samples;Min_cycle;Max_cycle;Signal;HPM_P1;HPM_P2
2023/03/27 00:00:41;;;;;;;1.88;0.63;;;;;;;;;;5061099;28;20044;-64
2023/03/27 00:03:19;;;;;;;3.38;0.93;;;;;;;;;;5058460;28;20041;-64
2023/03/27 00:05:45;;;;;;;2.50;0.80;;;;;;;;;;5066503;28;20044;-65
2023/03/27 00:08:12;;;;;;;3.10;0.88;;;;;;;;;;5072613;28;20107;-64
2023/03/27 00:10:38;;;;;;;4.53;0.98;;;;;;;;;;5062805;28;20052;-65
2023/03/27 00:13:08;;;;;;;2.42;0.70;;;;;;;;;;5068004;28;20045;-64
2023/03/27 00:15:36;;;;;;;1.83;0.68;;;;;;;;;;5067028;28;20204;-65
2023/03/27 00:18:02;;;;;;;4.03;1.00;;;;;;;;;;5068622;28;20052;-64
2023/03/27 00:20:36;;;;;;;2.92;0.70;;;;;;;;;;5070528;28;20049;-65
2023/03/27 00:23:03;;;;;;;5.90;1.13;;;;;;;;;;5064924;28;20041;-65
2023/03/27 00:25:30;;;;;;;6.93;1.23;;;;;;;;;;5068823;28;20396;-65
2023/03/27 00:27:59;;;;;;;5.45;0.90;;;;;;;;;;5067152;28;20106;-67
2023/03/27 00:30:28;;;;;;;2.40;1.10;;;;;;;;;;5064718;28;20033;-63
2023/03/27 00:32:55;;;;;;;5.90;0.85;;;;;;;;;;5064421;28;20048;-64
2023/03/27 00:35:22;;;;;;;3.67;0.90;;;;;;;;;;5063456;28;20048;-66
2023/03/27 00:37:48;;;;;;;6.32;1.02;;;;;;;;;;5065337;28;20205;-65
2023/03/27 00:40:24;;;;;;;3.13;0.73;;;;;;;;;;5067054;28;20055;-64
2023/03/27 00:42:56;;;;;;;4.22;0.80;;;;;;;;;;5066087;28;20098;-67
2023/03/27 00:45:32;;;;;;;4.47;1.00;;;;;;;;;;5082059;28;20056;-64
2023/03/27 00:48:05;;;;;;;3.90;1.13;;;;;;;;;;5063695;28;20487;-63
2023/03/27 00:50:35;;;;;;;4.40;0.90;;;;;;;;;;5070634;28;20078;-65
2023/03/27 00:53:12;;;;;;;1.45;0.90;;;;;;;;;;5066209;28;20047;-64
2023/03/27 00:55:42;;;;;;;2.25;0.82;;;;;;;;;;5066218;28;20053;-66
2023/03/27 00:58:25;;;;;;;3.13;1.00;;;;;;;;;;5067720;28;20060;-64
2023/03/27 01:00:53;;;;;;;5.32;1.20;;;;;;;;;;5062859;28;20041;-63
2023/03/27 01:03:21;;;;;;;3.08;0.77;;;;;;;;;;5070189;28;20635;-64
2023/03/27 01:05:49;;;;;;;3.80;1.00;;;;;;;;;;5063910;28;20051;-65
2023/03/27 01:08:15;;;;;;;3.50;0.98;;;;;;;;;;5071365;28;20044;-67
2023/03/27 01:11:03;;;;;;;2.85;0.68;;;;;;;;;;5069411;28;20052;-63
2023/03/27 01:13:38;;;;;;;4.25;0.90;;;;;;;;;;5086248;28;20496;-64
2023/03/27 01:16:08;;;;;;;3.38;0.95;;;;;;;;;;5064768;28;20075;-64
2023/03/27 01:18:59;;;;;;;2.15;0.90;;;;;;;;;;5069769;28;20049;-63
2023/03/27 01:22:18;;;;;;;5.40;0.90;;;;;;;;;;5064192;28;20037;-64
2023/03/27 01:25:09;;;;;;;4.97;1.33;;;;;;;;;;5081525;28;20053;-64
2023/03/27 01:28:09;;;;;;;2.35;0.80;;;;;;;;;;5064754;28;20059;-65
2023/03/27 01:30:39;;;;;;;2.80;1.00;;;;;;;;;;5062998;28;20061;-66
2023/03/27 01:33:11;;;;;;;2.95;1.20;;;;;;;;;;5067409;28;20551;-65
2023/03/27 01:36:07;;;;;;;2.97;0.70;;;;;;;;;;5068497;28;20052;-64
2023/03/27 01:38:58;;;;;;;4.22;1.00;;;;;;;;;;5070553;28;20489;-65
2023/03/27 01:41:29;;;;;;;3.50;0.95;;;;;;;;;;5066511;28;20512;-63
2023/03/27 01:44:12;;;;;;;4.25;1.02;;;;;;;;;;5080353;28;20049;-66
2023/03/27 01:46:55;;;;;;;1.67;0.60;;;;;;;;;;5070836;28;20055;-63
2023/03/27 01:49:31;;;;;;;2.80;0.90;;;;;;;;;;5066719;28;20727;-64
2023/03/27 01:52:03;;;;;;;1.58;0.80;;;;;;;;;;5064855;28;20044;-63
2023/03/27 01:54:42;;;;;;;3.67;1.08;;;;;;;;;;5069294;28;20048;-66
2023/03/27 01:57:21;;;;;;;2.40;0.82;;;;;;;;;;5064814;28;20580;-65
2023/03/27 02:00:09;;;;;;;6.55;0.95;;;;;;;;;;5069269;28;20603;-64
2023/03/27 02:02:36;;;;;;;3.25;0.95;;;;;;;;;;5065668;28;20099;-66
2023/03/27 02:05:11;;;;;;;3.58;0.95;;;;;;;;;;5061313;28;20059;-63
2023/03/27 02:07:43;;;;;;;4.50;1.10;;;;;;;;;;5066721;28;20048;-62
2023/03/27 02:10:14;;;;;;;5.13;1.00;;;;;;;;;;5063257;28;20070;-63
2023/03/27 02:12:50;;;;;;;4.38;1.10;;;;;;;;;;5063538;28;20102;-63
2023/03/27 02:15:22;;;;;;;2.92;1.00;;;;;;;;;;5059654;28;20173;-63
2023/03/27 02:18:04;;;;;;;6.05;1.00;;;;;;;;;;5066420;28;20075;-63
2023/03/27 02:20:35;;;;;;;4.28;1.50;;;;;;;;;;5065533;28;20040;-64
2023/03/27 02:23:02;;;;;;;6.50;1.05;;;;;;;;;;5064689;28;20472;-62
2023/03/27 02:25:37;;;;;;;3.30;1.20;;;;;;;;;;5064646;28;20048;-62
2023/03/27 02:28:22;;;;;;;7.10;1.20;;;;;;;;;;5060651;28;20181;-63
2023/03/27 02:31:25;;;;;;;4.05;1.00;;;;;;;;;;5065729;28;20445;-63
2023/03/27 02:34:08;;;;;;;4.80;1.10;;;;;;;;;;5066776;28;20044;-63
2023/03/27 02:36:54;;;;;;;7.38;1.38;;;;;;;;;;5062288;28;20442;-63
2023/03/27 02:39:40;;;;;;;3.25;1.08;;;;;;;;;;5076942;28;20585;-63
2023/03/27 02:42:15;;;;;;;3.20;1.10;;;;;;;;;;5076105;28;20044;-62
2023/03/27 02:44:50;;;;;;;3.40;1.20;;;;;;;;;;5064010;28;20062;-67
2023/03/27 02:47:30;;;;;;;2.22;0.77;;;;;;;;;;5062967;28;20151;-64
2023/03/27 02:50:04;;;;;;;4.03;0.88;;;;;;;;;;5068139;28;20346;-64
2023/03/27 02:52:52;;;;;;;6.70;1.17;;;;;;;;;;5061859;28;20564;-63
2023/03/27 02:55:26;;;;;;;3.17;1.05;;;;;;;;;;5062576;28;20037;-64
2023/03/27 02:57:55;;;;;;;;;;;;;;;;;;5062223;28;20519;-63
2023/03/27 03:00:27;;;;;;;3.45;1.20;;;;;;;;;;5063176;28;19924;-63
2023/03/27 03:03:04;;;;;;;1.90;0.75;;;;;;;;;;5061525;28;20118;-65
2023/03/27 03:05:31;;;;;;;1.85;0.90;;;;;;;;;;5066899;28;20807;-65
2023/03/27 03:07:57;;;;;;;2.42;0.90;;;;;;;;;;5063561;28;20052;-63
2023/03/27 03:10:24;;;;;;;2.70;0.70;;;;;;;;;;5060420;28;20048;-67
2023/03/27 03:12:50;;;;;;;3.10;0.80;;;;;;;;;;5066086;28;20463;-67
2023/03/27 03:15:17;;;;;;;4.43;0.90;;;;;;;;;;5066376;28;20328;-62
2023/03/27 03:17:44;;;;;;;2.13;0.77;;;;;;;;;;5064670;28;20047;-63
2023/03/27 03:20:11;;;;;;;2.80;0.80;;;;;;;;;;5060273;28;20059;-65
2023/03/27 03:22:38;;;;;;;4.82;1.27;;;;;;;;;;5078747;28;20664;-64
2023/03/27 03:25:09;;;;;;;1.90;0.90;;;;;;;;;;5061117;28;20044;-63
2023/03/27 03:27:36;;;;;;;2.42;0.88;;;;;;;;;;5060137;28;20492;-64
2023/03/27 03:30:08;;;;;;;1.30;0.60;;;;;;;;;;5062488;28;20241;-64
2023/03/27 03:32:34;;;;;;;4.43;0.90;;;;;;;;;;5057149;28;20496;-64
2023/03/27 03:35:00;;;;;;;1.83;0.77;;;;;;;;;;5059276;28;20059;-63
2023/03/27 03:37:27;;;;;;;2.38;0.80;;;;;;;;;;5061306;28;20074;-62
2023/03/27 03:39:54;;;;;;;2.28;0.80;;;;;;;;;;5062792;28;20392;-65
2023/03/27 03:42:21;;;;;;;1.95;0.80;;;;;;;;;;5063630;28;20058;-63
2023/03/27 03:44:46;;;;;;;2.88;1.10;;;;;;;;;;5061501;28;20516;-65
2023/03/27 03:47:12;;;;;;;2.85;0.88;;;;;;;;;;5062085;28;20067;-69
2023/03/27 03:49:38;;;;;;;2.58;0.80;;;;;;;;;;5061380;28;20053;-65
2023/03/27 03:52:04;;;;;;;3.30;0.90;;;;;;;;;;5058446;28;21725;-64
2023/03/27 03:54:31;;;;;;;3.33;1.08;;;;;;;;;;5064923;28;20443;-64
2023/03/27 03:56:58;;;;;;;4.20;1.17;;;;;;;;;;5060713;28;20058;-68
2023/03/27 03:59:24;;;;;;;3.30;1.00;;;;;;;;;;5062303;28;20487;-64
2023/03/27 04:01:52;;;;;;;3.97;1.13;;;;;;;;;;5058441;28;20052;-64
2023/03/27 04:04:18;;;;;;;4.78;1.05;;;;;;;;;;5062546;28;20382;-63
2023/03/27 04:06:44;;;;;;;1.83;0.77;;;;;;;;;;5063933;28;20057;-66
2023/03/27 04:09:11;;;;;;;5.30;1.00;;;;;;;;;;5058952;28;20182;-67
2023/03/27 04:11:38;;;;;;;3.80;1.27;;;;;;;;;;5064565;28;20400;-64
2023/03/27 04:14:04;;;;;;;4.32;1.00;;;;;;;;;;5063376;28;20127;-64
2023/03/27 04:16:30;;;;;;;3.70;1.13;;;;;;;;;;5064376;28;20048;-63
2023/03/27 04:18:56;;;;;;;3.70;1.02;;;;;;;;;;5057916;28;20416;-65
2023/03/27 04:21:25;;;;;;;4.00;1.00;;;;;;;;;;5065707;28;20040;-63
2023/03/27 04:23:51;;;;;;;3.88;1.15;;;;;;;;;;5061564;28;20179;-63
2023/03/27 04:26:17;;;;;;;3.33;1.00;;;;;;;;;;5063598;28;20400;-63
2023/03/27 04:28:43;;;;;;;5.30;1.10;;;;;;;;;;5059785;28;20048;-64
2023/03/27 04:31:09;;;;;;;4.88;1.10;;;;;;;;;;5061698;28;20056;-66
2023/03/27 04:33:45;;;;;;;6.30;1.20;;;;;;;;;;5057314;28;20053;-64
2023/03/27 04:36:15;;;;;;;3.60;1.10;;;;;;;;;;5065205;28;20040;-62
2023/03/27 04:38:41;;;;;;;4.13;1.30;;;;;;;;;;5061661;28;20122;-66
2023/03/27 04:41:07;;;;;;;3.45;1.20;;;;;;;;;;5067755;28;20037;-62
2023/03/27 04:43:35;;;;;;;4.50;1.15;;;;;;;;;;5063095;28;20054;-63
2023/03/27 04:46:04;;;;;;;4.05;1.13;;;;;;;;;;5063336;28;20056;-64
2023/03/27 04:48:30;;;;;;;6.05;1.27;;;;;;;;;;5063789;28;20060;-62
2023/03/27 04:50:57;;;;;;;5.45;1.40;;;;;;;;;;5060689;28;20041;-65
2023/03/27 04:53:22;;;;;;;6.28;1.23;;;;;;;;;;5067649;28;20052;-64
2023/03/27 04:55:52;;;;;;;2.70;1.13;;;;;;;;;;5067496;28;20496;-63
2023/03/27 04:58:18;;;;;;;6.45;1.10;;;;;;;;;;5067188;28;20355;-70
2023/03/27 05:00:49;;;;;;;4.78;1.00;;;;;;;;;;5064195;28;20040;-64
2023/03/27 05:03:17;;;;;;;4.63;1.30;;;;;;;;;;5067692;28;20564;-62
2023/03/27 05:05:50;;;;;;;10.70;1.25;;;;;;;;;;5066512;28;20044;-63
2023/03/27 05:08:17;;;;;;;6.70;1.25;;;;;;;;;;5063901;28;20048;-62
2023/03/27 05:10:44;;;;;;;6.80;1.52;;;;;;;;;;5065567;28;20053;-63
2023/03/27 05:13:10;;;;;;;6.15;1.40;;;;;;;;;;5063247;28;20224;-65
2023/03/27 05:16:16;;;;;;;14.60;1.60;;;;;;;;;;5063676;28;20048;-66
2023/03/27 05:19:36;;;;;;;11.38;1.88;;;;;;;;;;5068201;28;20044;-66
2023/03/27 05:22:04;;;;;;;8.15;1.98;;;;;;;;;;5060271;28;20512;-65
2023/03/27 05:25:10;;;;;;;5.82;1.75;;;;;;;;;;5073513;28;20138;-66
2023/03/27 05:28:51;;;;;;;4.53;1.80;;;;;;;;;;5065597;28;20091;-64
2023/03/27 05:32:30;;;;;;;7.30;1.50;;;;;;;;;;5065194;28;20040;-66
2023/03/27 05:36:10;;;;;;;7.22;1.50;;;;;;;;;;5071082;28;20040;-66
2023/03/27 05:39:51;;;;;;;11.70;1.75;;;;;;;;;;5066688;28;20088;-63
2023/03/27 05:43:31;;;;;;;7.50;1.95;;;;;;;;;;5059022;28;20352;-63
2023/03/27 05:47:13;;;;;;;10.52;1.60;;;;;;;;;;5065174;28;20071;-63
2023/03/27 05:50:52;;;;;;;5.35;1.30;;;;;;;;;;5072339;28;20048;-62
2023/03/27 05:54:32;;;;;;;9.80;1.40;;;;;;;;;;5066167;28;20401;-65
2023/03/27 05:58:13;;;;;;;5.13;1.60;;;;;;;;;;5065500;28;20051;-64
2023/03/27 06:01:53;;;;;;;5.88;1.45;;;;;;;;;;5070943;28;20062;-64
2023/03/27 06:05:33;;;;;;;5.63;1.60;;;;;;;;;;5068982;28;20152;-65
2023/03/27 06:09:14;;;;;;;7.70;1.30;;;;;;;;;;5067883;28;20052;-64
2023/03/27 06:12:54;;;;;;;6.72;1.90;;;;;;;;;;5072942;28;20078;-63
2023/03/27 06:16:34;;;;;;;8.13;1.88;;;;;;;;;;5063261;28;20102;-63
2023/03/27 06:20:18;;;;;;;5.15;1.42;;;;;;;;;;5067192;28;20052;-67
2023/03/27 06:23:57;;;;;;;5.80;1.40;;;;;;;;;;5066641;28;20082;-65
2023/03/27 06:27:38;;;;;;;3.00;1.20;;;;;;;;;;5068343;28;20040;-67
2023/03/27 06:31:18;;;;;;;7.93;1.23;;;;;;;;;;5066435;28;20145;-64
2023/03/27 06:34:58;;;;;;;5.30;1.48;;;;;;;;;;5061476;28;20044;-65
2023/03/27 06:38:39;;;;;;;16.05;1.92;;;;;;;;;;5059411;28;20086;-69
2023/03/27 06:42:19;;;;;;;5.78;1.40;;;;;;;;;;5066248;28;20094;-70
2023/03/27 06:46:03;;;;;;;5.97;1.20;;;;;;;;;;5062773;28;20046;-66
2023/03/27 06:49:46;;;;;;;5.40;2.72;;;;;;;;;;5062438;28;20070;-62
2023/03/27 06:53:24;;;;;;;5.45;1.85;;;;;;;;;;5064355;28;20052;-67
2023/03/27 06:57:05;;;;;;;6.43;1.83;;;;;;;;;;5064792;28;20485;-66
2023/03/27 07:00:47;;;;;;;4.13;1.10;;;;;;;;;;5073556;28;20055;-66
2023/03/27 07:04:26;;;;;;;4.03;1.30;;;;;;;;;;5062265;28;20060;-66
2023/03/27 07:08:06;;;;;;;5.78;1.30;;;;;;;;;;5065389;28;20048;-65
2023/03/27 07:11:47;;;;;;;7.07;1.13;;;;;;;;;;5068835;28;20048;-64
2023/03/27 07:15:27;;;;;;;4.50;1.42;;;;;;;;;;5066459;28;20036;-66
2023/03/27 07:19:08;;;;;;;4.47;1.08;;;;;;;;;;5062314;28;20060;-66
2023/03/27 07:22:48;;;;;;;2.90;0.90;;;;;;;;;;5065033;28;20053;-65
2023/03/27 07:26:28;;;;;;;3.20;0.70;;;;;;;;;;5068142;28;20036;-65
2023/03/27 07:30:13;;;;;;;5.93;1.40;;;;;;;;;;5062983;28;20053;-63
2023/03/27 07:33:53;;;;;;;5.40;1.30;;;;;;;;;;5063743;28;20056;-63
2023/03/27 07:37:34;;;;;;;2.67;1.10;;;;;;;;;;5063139;28;20040;-67
2023/03/27 07:41:13;;;;;;;5.38;0.98;;;;;;;;;;5063103;28;20029;-64
2023/03/27 07:44:54;;;;;;;4.85;1.20;;;;;;;;;;5053828;28;20102;-65
2023/03/27 07:48:34;;;;;;;7.28;1.60;;;;;;;;;;5048391;28;20049;-65
2023/03/27 07:52:14;;;;;;;9.20;1.50;;;;;;;;;;5060186;28;20051;-69
2023/03/27 07:55:57;;;;;;;5.13;1.10;;;;;;;;;;5059028;28;20540;-68
2023/03/27 07:59:35;;;;;;;5.43;0.88;;;;;;;;;;5067814;28;20047;-67
2023/03/27 08:03:24;;;;;;;5.18;1.10;;;;;;;;;;5058684;28;20044;-64
2023/03/27 08:07:04;;;;;;;2.97;1.15;;;;;;;;;;5060679;28;20447;-66
2023/03/27 08:10:46;;;;;;;4.05;1.10;;;;;;;;;;5057905;28;20044;-64
2023/03/27 08:14:25;;;;;;;5.70;1.17;;;;;;;;;;5062874;28;20522;-64
2023/03/27 08:18:06;;;;;;;5.63;0.93;;;;;;;;;;5062318;28;20072;-65
2023/03/27 08:21:46;;;;;;;5.50;1.02;;;;;;;;;;5059738;28;20048;-64
2023/03/27 08:25:28;;;;;;;7.47;1.33;;;;;;;;;;5064410;28;20049;-65
2023/03/27 08:29:07;;;;;;;5.28;0.80;;;;;;;;;;5055439;28;20163;-64
2023/03/27 08:32:47;;;;;;;3.90;0.80;;;;;;;;;;5062734;28;20060;-64
2023/03/27 08:36:28;;;;;;;2.55;0.95;;;;;;;;;;5054648;28;20411;-63
2023/03/27 08:40:12;;;;;;;1.92;0.88;;;;;;;;;;5057640;28;20048;-63
2023/03/27 08:43:49;;;;;;;3.00;0.80;;;;;;;;;;5062363;28;20071;-66
2023/03/27 08:47:17;;;;;;;5.13;0.68;;;;;;;;;;5063218;28;20059;-64
2023/03/27 08:51:04;;;;;;;3.22;0.60;;;;;;;;;;5058271;28;20055;-63
2023/03/27 08:54:46;;;;;;;6.10;0.93;;;;;;;;;;5062072;28;20047;-64
2023/03/27 08:58:36;;;;;;;7.05;1.30;;;;;;;;;;5063582;28;20052;-62
2023/03/27 09:02:16;;;;;;;3.00;0.80;;;;;;;;;;5068288;28;20043;-63
2023/03/27 09:05:37;;;;;;;6.45;1.10;;;;;;;;;;5072678;28;20044;-65
2023/03/27 09:09:12;;;;;;;4.32;0.70;;;;;;;;;;5065809;28;20119;-63
2023/03/27 09:12:39;;;;;;;3.22;0.80;;;;;;;;;;5063087;28;20447;-65
2023/03/27 09:16:05;;;;;;;3.25;0.85;;;;;;;;;;5064270;28;20102;-64
2023/03/27 09:19:58;;;;;;;4.43;0.95;;;;;;;;;;5062181;28;20158;-64
2023/03/27 09:23:21;;;;;;;3.33;0.77;;;;;;;;;;5055266;28;20047;-64
2023/03/27 09:27:05;;;;;;;1.73;0.80;;;;;;;;;;5058055;28;20127;-65
2023/03/27 09:30:09;;;;;;;3.55;0.80;;;;;;;;;;5064715;28;20396;-64
2023/03/27 09:33:49;;;;;;;4.65;1.02;;;;;;;;;;5058480;28;20062;-66
2023/03/27 09:37:29;;;;;;;3.90;1.00;;;;;;;;;;5057373;28;20246;-67
2023/03/27 09:41:32;;;;;;;1.70;0.82;;;;;;;;;;5062499;28;20060;-64
2023/03/27 09:45:12;;;;;;;2.17;0.68;;;;;;;;;;5062983;28;20216;-64
2023/03/27 09:48:55;;;;;;;4.40;0.88;;;;;;;;;;5065137;28;20440;-63
2023/03/27 09:52:53;;;;;;;5.18;0.80;;;;;;;;;;5061606;28;20506;-64
2023/03/27 09:55:51;;;;;;;1.55;0.80;;;;;;;;;;5060600;28;20045;-66
2023/03/27 09:59:37;;;;;;;1.75;0.50;;;;;;;;;;5058304;28;20052;-64
2023/03/27 10:03:17;;;;;;;2.50;0.80;;;;;;;;;;5059474;28;20040;-64
2023/03/27 10:06:37;;;;;;;1.10;0.57;;;;;;;;;;5055868;28;20328;-64
2023/03/27 10:09:21;;;;;;;4.00;0.70;;;;;;;;;;5044433;28;20049;-66
2023/03/27 10:11:49;;;;;;;2.40;0.90;;;;;;;;;;5058402;28;20052;-63
2023/03/27 10:14:18;;;;;;;1.45;0.60;;;;;;;;;;5067850;28;20308;-63
2023/03/27 10:16:46;;;;;;;0.88;0.60;;;;;;;;;;5061383;28;20090;-65
2023/03/27 10:19:31;;;;;;;3.63;0.90;;;;;;;;;;5064869;28;20063;-66
2023/03/27 10:22:05;;;;;;;1.85;0.80;;;;;;;;;;5067293;28;20072;-65
2023/03/27 10:24:34;;;;;;;4.32;1.20;;;;;;;;;;5068618;28;20056;-66
2023/03/27 10:27:05;;;;;;;1.45;0.80;;;;;;;;;;5060375;28;20496;-63
2023/03/27 10:29:35;;;;;;;2.90;1.25;;;;;;;;;;5064993;28;20139;-63
2023/03/27 10:32:03;;;;;;;2.83;0.60;;;;;;;;;;5064367;28;20052;-65
2023/03/27 10:34:49;;;;;;;4.00;1.08;;;;;;;;;;5065797;28;20668;-64
2023/03/27 10:37:26;;;;;;;4.28;0.65;;;;;;;;;;5060400;28;20139;-64
2023/03/27 10:39:58;;;;;;;1.80;1.00;;;;;;;;;;5059818;28;20121;-65
2023/03/27 10:42:31;;;;;;;2.97;0.70;;;;;;;;;;5063307;28;20041;-66
2023/03/27 10:44:59;;;;;;;2.80;0.82;;;;;;;;;;5063629;28;20044;-64
2023/03/27 10:47:28;;;;;;;4.38;0.85;;;;;;;;;;5061936;28;20070;-65
2023/03/27 10:50:05;;;;;;;1.67;0.63;;;;;;;;;;5064217;28;20485;-64
2023/03/27 10:52:54;;;;;;;4.95;0.70;;;;;;;;;;5061903;28;20076;-65
2023/03/27 10:55:58;;;;;;;5.80;0.93;;;;;;;;;;5062535;28;20052;-66
2023/03/27 10:58:32;;;;;;;3.58;0.80;;;;;;;;;;5062334;28;20056;-65
2023/03/27 11:01:27;;;;;;;3.83;0.93;;;;;;;;;;5063855;28;20041;-63
2023/03/27 11:03:53;;;;;;;;;;;;;;;;;;5041375;28;20056;-64
2023/03/27 11:06:26;;;;;;;3.85;1.00;;;;;;;;;;5063065;28;19924;-65
2023/03/27 11:09:18;;;;;;;6.28;0.73;;;;;;;;;;5063890;28;20056;-63
2023/03/27 11:11:53;;;;;;;5.00;0.70;;;;;;;;;;5059173;28;20049;-65
2023/03/27 11:14:43;;;;;;;5.97;1.85;;;;;;;;;;5065305;28;20053;-65
2023/03/27 11:17:13;;;;;;;3.17;1.02;;;;;;;;;;5064227;28;20060;-65
2023/03/27 11:19:53;;;;;;;6.57;1.00;;;;;;;;;;5056813;28;20451;-66
2023/03/27 11:22:31;;;;;;;5.20;0.82;;;;;;;;;;5066709;28;20052;-64
2023/03/27 11:25:18;;;;;;;5.88;1.40;;;;;;;;;;5064612;28;20095;-66
2023/03/27 11:28:03;;;;;;;6.55;0.98;;;;;;;;;;5059723;28;20064;-63
2023/03/27 11:30:47;;;;;;;2.63;1.00;;;;;;;;;;5059269;28;20051;-66
2023/03/27 11:33:38;;;;;;;3.05;1.02;;;;;;;;;;5066850;28;20041;-65
2023/03/27 11:36:09;;;;;;;2.00;0.90;;;;;;;;;;5062338;28;20608;-65
2023/03/27 11:38:40;;;;;;;2.05;0.95;;;;;;;;;;5061102;28;20056;-65
2023/03/27 11:41:11;;;;;;;5.28;1.23;;;;;;;;;;5059281;28;20040;-66
2023/03/27 11:44:17;;;;;;;3.17;0.80;;;;;;;;;;5058190;28;20064;-67
2023/03/27 11:47:45;;;;;;;4.13;1.35;;;;;;;;;;5053849;28;20119;-64
2023/03/27 11:51:46;;;;;;;2.53;0.90;;;;;;;;;;5052474;28;20037;-67
2023/03/27 11:54:56;;;;;;;6.97;1.00;;;;;;;;;;5059250;28;20383;-67
2023/03/27 11:58:30;;;;;;;4.25;0.95;;;;;;;;;;5063380;28;20394;-65
2023/03/27 12:01:29;;;;;;;2.33;0.80;;;;;;;;;;5058288;28;20135;-65
2023/03/27 12:04:47;;;;;;;2.33;0.70;;;;;;;;;;5057312;28;20072;-65
2023/03/27 12:08:21;;;;;;;3.53;1.20;;;;;;;;;;5066093;28;20117;-64
2023/03/27 12:12:01;;;;;;;6.05;0.93;;;;;;;;;;5058605;28;20043;-65
2023/03/27 12:15:39;;;;;;;2.35;1.05;;;;;;;;;;5063880;28;20518;-68
2023/03/27 12:18:51;;;;;;;3.70;1.30;;;;;;;;;;5059021;28;20555;-65
2023/03/27 12:22:13;;;;;;;6.32;2.50;;;;;;;;;;5062724;28;20606;-64
2023/03/27 12:25:48;;;;;;;8.02;3.05;;;;;;;;;;5063033;28;20530;-68
2023/03/27 12:29:04;;;;;;;12.20;4.30;;;;;;;;;;5058657;28;20711;-67
2023/03/27 12:32:20;;;;;;;4.35;1.05;;;;;;;;;;5060548;28;20045;-70
2023/03/27 12:35:40;;;;;;;;;;;;;;;;;;5064120;28;20037;-66
2023/03/27 12:39:20;;;;;;;4.40;1.42;;;;;;;;;;5056609;28;20376;-66
2023/03/27 12:43:00;;;;;;;4.93;1.10;;;;;;;;;;5059772;28;20045;-64
2023/03/27 12:46:55;;;;;;;3.20;0.90;;;;;;;;;;5058060;28;20052;-64
2023/03/27 12:50:40;;;;;;;6.57;1.70;;;;;;;;;;5065136;28;20044;-65
2023/03/27 12:53:40;;;;;;;4.32;1.27;;;;;;;;;;5062634;28;20057;-62
2023/03/27 12:57:25;;;;;;;5.75;1.40;;;;;;;;;;5064669;28;20110;-64
2023/03/27 13:01:12;;;;;;;3.65;1.10;;;;;;;;;;5058894;28;20044;-64
2023/03/27 13:04:31;;;;;;;5.90;1.27;;;;;;;;;;5065521;28;20049;-66
2023/03/27 13:08:01;;;;;;;3.42;1.42;;;;;;;;;;5055522;28;20059;-67
2023/03/27 13:11:17;;;;;;;4.70;1.50;;;;;;;;;;5061771;28;20052;-67
2023/03/27 13:14:39;;;;;;;4.70;1.58;;;;;;;;;;5059457;28;21200;-65
2023/03/27 13:18:01;;;;;;;5.30;1.30;;;;;;;;;;5065668;28;20082;-68
2023/03/27 13:21:05;;;;;;;4.63;1.30;;;;;;;;;;5062826;28;20040;-67
2023/03/27 13:25:13;;;;;;;6.68;1.48;;;;;;;;;;5070394;28;20040;-65
2023/03/27 13:28:47;;;;;;;7.32;1.92;;;;;;;;;;5065497;28;20056;-66
2023/03/27 13:31:46;;;;;;;3.13;1.08;;;;;;;;;;5070684;28;20053;-64
2023/03/27 13:35:17;;;;;;;10.85;1.88;;;;;;;;;;5057781;28;20426;-68
2023/03/27 13:38:51;;;;;;;7.00;1.98;;;;;;;;;;5065097;28;20127;-64
2023/03/27 13:42:37;;;;;;;7.82;1.38;;;;;;;;;;5060221;28;20135;-65
2023/03/27 13:46:23;;;;;;;12.95;2.30;;;;;;;;;;5063288;28;20447;-65
2023/03/27 13:49:56;;;;;;;17.20;2.30;;;;;;;;;;5069744;28;20195;-65
2023/03/27 13:53:44;;;;;;;5.43;1.70;;;;;;;;;;5068354;28;20045;-65
2023/03/27 13:57:10;;;;;;;8.60;2.05;;;;;;;;;;5061538;28;20385;-63
2023/03/27 14:00:51;;;;;;;7.78;2.58;;;;;;;;;;5067762;28;20044;-66
2023/03/27 14:04:12;;;;;;;9.60;2.35;;;;;;;;;;5062310;28;20062;-65
2023/03/27 14:07:40;;;;;;;6.47;2.30;;;;;;;;;;5060398;28;20488;-63
2023/03/27 14:10:58;;;;;;;10.52;1.90;;;;;;;;;;5060619;28;20036;-65
2023/03/27 14:14:46;;;;;;;16.42;2.17;;;;;;;;;;5058146;28;20138;-65
2023/03/27 14:17:52;;;;;;;11.15;1.80;;;;;;;;;;5060850;28;20044;-65
2023/03/27 14:21:36;;;;;;;4.70;1.55;;;;;;;;;;5059937;28;20792;-66
2023/03/27 14:25:22;;;;;;;15.75;2.42;;;;;;;;;;5058271;28;20048;-65
2023/03/27 14:29:09;;;;;;;22.58;2.40;;;;;;;;;;5062505;28;20076;-65
2023/03/27 14:32:53;;;;;;;37.53;3.30;;;;;;;;;;5060331;28;20049;-64
2023/03/27 14:36:40;;;;;;;47.53;3.55;;;;;;;;;;5063538;28;20075;-64
2023/03/27 14:40:16;;;;;;;25.65;2.78;;;;;;;;;;5065082;28;20742;-66
2023/03/27 14:44:02;;;;;;;20.63;2.08;;;;;;;;;;5067612;28;20105;-67
2023/03/27 14:47:40;;;;;;;13.43;1.70;;;;;;;;;;5057547;28;20523;-65
2023/03/27 14:51:20;;;;;;;18.10;2.03;;;;;;;;;;5060011;28;20115;-65
2023/03/27 14:55:00;;;;;;;14.50;2.20;;;;;;;;;;5062099;28;21337;-65
2023/03/27 14:58:41;;;;;;;10.23;2.10;;;;;;;;;;5060327;28;20048;-66
2023/03/27 15:02:25;;;;;;;18.17;2.33;;;;;;;;;;5058174;28;20040;-65
2023/03/27 15:06:16;;;;;;;14.63;2.40;;;;;;;;;;5059484;28;20413;-65
2023/03/27 15:09:56;;;;;;;13.65;1.77;;;;;;;;;;5055949;28;20571;-65
2023/03/27 15:13:36;;;;;;;13.27;1.95;;;;;;;;;;5060921;28;20109;-67
2023/03/27 15:17:05;;;;;;;21.50;2.67;;;;;;;;;;5060624;28;20044;-66
2023/03/27 15:20:44;;;;;;;14.63;2.42;;;;;;;;;;5062749;28;20598;-63
2023/03/27 15:24:26;;;;;;;16.88;2.10;;;;;;;;;;5062909;28;20131;-67
2023/03/27 15:28:07;;;;;;;14.00;1.90;;;;;;;;;;5066247;28;20052;-66
2023/03/27 15:31:47;;;;;;;12.52;2.20;;;;;;;;;;5060172;28;20130;-66
2023/03/27 15:35:27;;;;;;;15.40;2.50;;;;;;;;;;5062845;28;20037;-67
2023/03/27 15:39:08;;;;;;;15.98;2.28;;;;;;;;;;5059629;28;20055;-71
2023/03/27 15:43:00;;;;;;;14.68;2.03;;;;;;;;;;5059199;28;20036;-65
2023/03/27 15:46:53;;;;;;;18.23;2.15;;;;;;;;;;5058645;28;20053;-65
2023/03/27 15:50:13;;;;;;;21.35;2.53;;;;;;;;;;5057155;28;20037;-65
2023/03/27 15:53:56;;;;;;;21.27;2.90;;;;;;;;;;5056908;28;20051;-65
2023/03/27 15:57:36;;;;;;;14.60;2.30;;;;;;;;;;5055097;28;20063;-65
2023/03/27 16:01:17;;;;;;;10.68;2.72;;;;;;;;;;5057003;28;20543;-62
2023/03/27 16:05:00;;;;;;;11.48;1.95;;;;;;;;;;5057411;28;20515;-64
2023/03/27 16:08:40;;;;;;;8.55;2.33;;;;;;;;;;5060301;28;20441;-65
2023/03/27 16:12:21;;;;;;;7.75;2.25;;;;;;;;;;5055697;28;20078;-65
2023/03/27 16:15:56;;;;;;;9.93;1.80;;;;;;;;;;5060792;28;20048;-66
2023/03/27 16:19:36;;;;;;;17.40;1.80;;;;;;;;;;5062171;28;20127;-66
2023/03/27 16:23:16;;;;;;;10.48;1.85;;;;;;;;;;5060542;28;20385;-67
2023/03/27 16:26:57;;;;;;;7.38;2.22;;;;;;;;;;5052635;28;20044;-66
2023/03/27 16:30:38;;;;;;;10.80;2.60;;;;;;;;;;5062241;28;20102;-65
2023/03/27 16:34:18;;;;;;;7.72;2.22;;;;;;;;;;5061252;28;20110;-66
2023/03/27 16:37:58;;;;;;;15.05;4.53;;;;;;;;;;5058279;28;20044;-64
2023/03/27 16:41:38;;;;;;;6.40;2.65;;;;;;;;;;5062204;28;20044;-66
2023/03/27 16:45:19;;;;;;;10.18;2.80;;;;;;;;;;5064527;28;20265;-65
2023/03/27 16:48:59;;;;;;;4.22;1.60;;;;;;;;;;5062286;28;21045;-66
2023/03/27 16:52:39;;;;;;;6.50;1.60;;;;;;;;;;5063300;28;20045;-63
2023/03/27 16:56:20;;;;;;;6.88;1.70;;;;;;;;;;5065578;28;20132;-64
2023/03/27 17:00:00;;;;;;;12.85;1.92;;;;;;;;;;5066600;28;20131;-64
2023/03/27 17:03:41;;;;;;;6.22;1.90;;;;;;;;;;5060646;28;20048;-65
2023/03/27 17:07:23;;;;;;;9.52;2.17;;;;;;;;;;5066541;28;20040;-67
2023/03/27 17:11:01;;;;;;;6.88;1.60;;;;;;;;;;5067290;28;20063;-63
2023/03/27 17:14:41;;;;;;;6.80;1.65;;;;;;;;;;5065217;28;20063;-67
2023/03/27 17:18:22;;;;;;;6.80;1.45;;;;;;;;;;5062362;28;20081;-65
2023/03/27 17:22:02;;;;;;;6.78;1.83;;;;;;;;;;5067539;28;20127;-65
2023/03/27 17:25:42;;;;;;;6.53;1.83;;;;;;;;;;5066256;28;20177;-67
2023/03/27 17:29:23;;;;;;;9.07;2.25;;;;;;;;;;5064802;28;20060;-65
2023/03/27 17:33:03;;;;;;;7.18;1.75;;;;;;;;;;5062843;28;20133;-65
2023/03/27 17:36:47;;;;;;;8.15;1.90;;;;;;;;;;5057591;28;20122;-66
2023/03/27 17:40:27;;;;;;;12.43;1.80;;;;;;;;;;5064351;28;20139;-67
2023/03/27 17:44:07;;;;;;;12.93;1.85;;;;;;;;;;5061080;28;20049;-66
2023/03/27 17:47:47;;;;;;;11.23;2.05;;;;;;;;;;5062204;28;20415;-66
2023/03/27 17:51:28;;;;;;;8.23;1.55;;;;;;;;;;5067606;28;20446;-64
2023/03/27 17:55:08;;;;;;;5.68;1.40;;;;;;;;;;5054201;28;20094;-65
2023/03/27 17:58:11;;;;;;;7.40;2.05;;;;;;;;;;5042894;28;20052;-67
2023/03/27 18:01:17;;;;;;;10.38;3.10;;;;;;;;;;5057467;28;20052;-66
2023/03/27 18:04:57;;;;;;;5.55;2.00;;;;;;;;;;5059426;28;20524;-66
2023/03/27 18:08:37;;;;;;;8.90;1.60;;;;;;;;;;5061393;28;20052;-65
2023/03/27 18:12:18;;;;;;;8.95;2.20;;;;;;;;;;5058353;28;20048;-66
2023/03/27 18:15:58;;;;;;;10.98;1.90;;;;;;;;;;5066029;28;20052;-64
2023/03/27 18:19:38;;;;;;;8.75;2.38;;;;;;;;;;5068771;28;20056;-70
2023/03/27 18:23:19;;;;;;;7.25;1.60;;;;;;;;;;5063859;28;20269;-66
2023/03/27 18:26:59;;;;;;;9.50;1.92;;;;;;;;;;5067470;28;20044;-66
2023/03/27 18:30:41;;;;;;;9.40;1.88;;;;;;;;;;5066080;28;20114;-65
2023/03/27 18:34:21;;;;;;;7.18;1.88;;;;;;;;;;5063579;28;20048;-64
2023/03/27 18:38:02;;;;;;;13.40;2.10;;;;;;;;;;5068677;28;20367;-66
2023/03/27 18:41:42;;;;;;;10.35;1.58;;;;;;;;;;5063038;28;20046;-66
2023/03/27 18:45:23;;;;;;;5.63;1.65;;;;;;;;;;5055651;28;20056;-64